Time;durP1;ratioP1;P1;durP2;ratioP2;P2;SDS_P1;SDS_P2;PMS_P1;PMS_P2;Temp;Humidity;BMP_temperature;BMP_pressure;BME280_temperature;BME280_humidity;BME280_pressure;Samples;Min_cycle;Max_cycle;Signal;HPM_P1;HPM_P2
2021/04/07 00:00:14;;;;;;;4.32;0.10;;;1.40;99.90;;;;;;6160565;23;20009;-77
2021/04/07 00:02:40;;;;;;;5.43;0.60;;;1.40;99.90;;;;;;6160581;23;20005;-78
2021/04/07 00:05:10;;;;;;;4.45;0.08;;;1.50;99.90;;;;;;6158636;23;20039;-78
2021/04/07 00:07:36;;;;;;;3.33;0.00;;;1.50;99.90;;;;;;6158275;23;20056;-78
2021/04/07 00:10:05;;;;;;;6.22;0.13;;;1.50;99.90;;;;;;6158519;23;20002;-78
2021/04/07 00:12:30;;;;;;;5.45;0.35;;;1.50;99.90;;;;;;6132192;23;20076;-78
2021/04/07 00:14:56;;;;;;;2.80;0.38;;;1.50;99.90;;;;;;6131775;23;20009;-78
2021/04/07 00:17:21;;;;;;;3.08;0.00;;;1.60;99.90;;;;;;6158174;23;20009;-78
2021/04/07 00:19:47;;;;;;;4.93;0.32;;;1.50;99.90;;;;;;6158228;23;20005;-78
2021/04/07 00:22:12;;;;;;;4.57;0.40;;;1.40;99.90;;;;;;6133441;23;20088;-78
2021/04/07 00:24:38;;;;;;;1.75;0.00;;;1.30;99.90;;;;;;6157340;23;20314;-78
2021/04/07 00:27:08;;;;;;;4.82;0.00;;;1.30;99.90;;;;;;6156446;23;20009;-79
2021/04/07 00:29:34;;;;;;;3.53;0.43;;;1.30;99.90;;;;;;6160269;23;20456;-78
2021/04/07 00:32:00;;;;;;;6.95;0.25;;;1.30;99.90;;;;;;6158940;23;20001;-78
2021/04/07 00:34:25;;;;;;;3.13;0.00;;;1.20;99.90;;;;;;6158865;23;20434;-78
2021/04/07 00:36:51;;;;;;;3.88;0.00;;;1.20;99.90;;;;;;6131725;23;19997;-77
2021/04/07 00:39:16;;;;;;;6.05;0.63;;;1.30;99.90;;;;;;6157770;23;20001;-78
2021/04/07 00:41:42;;;;;;;3.33;0.88;;;1.30;99.90;;;;;;6161586;23;20005;-77
2021/04/07 00:44:08;;;;;;;3.75;0.10;;;1.30;99.90;;;;;;6161163;23;20013;-79
2021/04/07 01:11:21;;;;;;;5.95;0.00;;;1.50;99.90;;;;;;6157912;23;20079;-78
2021/04/07 01:13:51;;;;;;;5.43;0.10;;;1.10;99.90;;;;;;6159645;23;20002;-77
2021/04/07 01:16:17;;;;;;;5.03;0.00;;;;;;;;;;6138694;23;20026;-77
2021/04/07 01:18:42;;;;;;;5.18;1.10;;;1.50;99.90;;;;;;6132804;23;20013;-77
2021/04/07 01:21:08;;;;;;;0.70;0.00;;;1.40;99.90;;;;;;6158199;23;20394;-78
2021/04/07 01:23:36;;;;;;;4.57;0.35;;;1.40;99.90;;;;;;6158911;23;20120;-77
2021/04/07 01:26:02;;;;;;;7.67;0.40;;;1.40;99.90;;;;;;6132334;23;20064;-78
2021/04/07 01:28:28;;;;;;;2.38;0.10;;;1.40;99.90;;;;;;6157921;23;20233;-77
2021/04/07 01:30:53;;;;;;;6.25;0.05;;;1.40;99.90;;;;;;6131493;23;20029;-77
2021/04/07 01:33:23;;;;;;;5.90;0.52;;;1.40;99.90;;;;;;6132124;23;20002;-79
2021/04/07 01:35:51;;;;;;;4.70;0.00;;;1.40;99.90;;;;;;6158524;23;20329;-79
2021/04/07 01:38:17;;;;;;;8.35;0.20;;;1.40;99.90;;;;;;6131622;23;20088;-79
2021/04/07 01:40:44;;;;;;;3.15;0.20;;;1.40;99.90;;;;;;6131974;23;20029;-79
2021/04/07 01:43:10;;;;;;;6.78;0.00;;;1.40;99.90;;;;;;6132022;23;20001;-79
2021/04/07 01:45:37;;;;;;;10.55;0.60;;;1.40;99.90;;;;;;6159195;23;20057;-78
2021/04/07 01:48:04;;;;;;;1.38;0.00;;;1.30;99.90;;;;;;6133538;23;20006;-78
2021/04/07 01:50:30;;;;;;;5.30;0.00;;;1.30;99.90;;;;;;6158394;23;20345;-78
2021/04/07 01:52:56;;;;;;;1.88;0.00;;;1.30;99.90;;;;;;6132504;23;20085;-77
2021/04/07 01:55:22;;;;;;;5.55;0.00;;;1.20;99.90;;;;;;6132492;23;20069;-78
2021/04/07 01:57:48;;;;;;;2.13;0.00;;;1.20;99.90;;;;;;6159157;23;20005;-78
2021/04/07 02:00:15;;;;;;;2.75;0.10;;;1.10;99.90;;;;;;6133892;23;20005;-78
2021/04/07 02:02:40;;;;;;;3.97;0.35;;;1.10;99.90;;;;;;6134718;23;20009;-78
2021/04/07 02:05:07;;;;;;;3.05;0.10;;;1.20;99.90;;;;;;6159275;23;20028;-78
2021/04/07 02:07:32;;;;;;;6.13;0.00;;;1.20;99.90;;;;;;6160032;23;20005;-78
2021/04/07 02:10:04;;;;;;;2.92;0.00;;;1.40;99.90;;;;;;6159277;23;20055;-78
2021/04/07 02:12:30;;;;;;;0.70;0.00;;;1.50;99.90;;;;;;6134778;23;20005;-78
2021/04/07 02:14:55;;;;;;;3.03;0.00;;;1.40;99.90;;;;;;6159051;23;20322;-78
2021/04/07 02:17:21;;;;;;;9.55;0.15;;;1.40;99.90;;;;;;6158982;23;20328;-77
2021/04/07 02:19:46;;;;;;;5.38;0.05;;;1.30;99.90;;;;;;6160283;23;20013;-78
2021/04/07 02:22:15;;;;;;;6.68;0.00;;;1.30;99.90;;;;;;6134486;23;20013;-78
2021/04/07 02:24:46;;;;;;;1.67;0.00;;;1.30;99.90;;;;;;6158977;23;20009;-78
2021/04/07 02:27:14;;;;;;;0.10;0.00;;;1.30;99.90;;;;;;6133260;23;20001;-78
2021/04/07 02:29:42;;;;;;;2.92;0.20;;;1.30;99.90;;;;;;6158816;23;20052;-79
2021/04/07 02:32:07;;;;;;;2.28;0.10;;;1.30;99.90;;;;;;6160466;23;20027;-78
2021/04/07 02:34:34;;;;;;;2.60;0.00;;;1.20;99.90;;;;;;6132906;23;20033;-79
2021/04/07 02:37:00;;;;;;;2.45;0.05;;;1.20;99.90;;;;;;6158886;23;20418;-79
2021/04/07 02:39:26;;;;;;;1.27;0.05;;;1.20;99.90;;;;;;6132903;23;20002;-78
2021/04/07 02:41:52;;;;;;;4.38;0.00;;;1.30;99.90;;;;;;6158322;23;20033;-78
2021/04/07 02:44:17;;;;;;;1.50;0.00;;;1.30;99.90;;;;;;6158763;23;20430;-78
2021/04/07 02:46:43;;;;;;;3.10;0.00;;;1.30;99.90;;;;;;6131751;23;20085;-77
2021/04/07 02:49:08;;;;;;;1.75;0.00;;;1.30;99.90;;;;;;6158562;23;20005;-77
2021/04/07 02:51:34;;;;;;;4.50;0.13;;;1.30;99.90;;;;;;6158011;23;20060;-77
2021/04/07 02:54:00;;;;;;;4.95;0.10;;;1.30;99.90;;;;;;6132168;23;20009;-77
2021/04/07 02:56:28;;;;;;;0.73;0.00;;;1.40;99.90;;;;;;6158379;23;19998;-78
2021/04/07 02:58:54;;;;;;;5.80;0.20;;;1.50;99.90;;;;;;6158140;23;20001;-78
2021/04/07 03:01:19;;;;;;;7.78;0.63;;;1.60;99.90;;;;;;6132136;23;20017;-78
2021/04/07 03:03:45;;;;;;;5.80;0.00;;;1.70;99.90;;;;;;6159162;23;20077;-78
2021/04/07 03:06:11;;;;;;;7.70;1.10;;;1.70;99.90;;;;;;6158731;23;20006;-78
2021/04/07 03:08:36;;;;;;;3.78;0.22;;;1.80;99.90;;;;;;6133611;23;20384;-78
2021/04/07 03:11:02;;;;;;;9.73;0.30;;;1.90;99.90;;;;;;6159232;23;20122;-77
2021/04/07 03:13:27;;;;;;;6.95;0.10;;;1.90;99.90;;;;;;6136372;23;20001;-78
2021/04/07 03:15:53;;;;;;;5.45;0.10;;;1.80;99.90;;;;;;6161109;23;19998;-78
2021/04/07 03:18:19;;;;;;;11.38;0.75;;;1.80;99.90;;;;;;6133546;23;20012;-78
2021/04/07 03:20:45;;;;;;;9.07;0.40;;;;;;;;;;6157464;23;20032;-77
2021/04/07 03:23:11;;;;;;;2.35;0.20;;;;;;;;;;6159879;23;19997;-78
2021/04/07 03:25:37;;;;;;;6.75;0.40;;;1.80;99.90;;;;;;6159074;23;20007;-78
2021/04/07 03:28:03;;;;;;;6.70;0.10;;;1.70;99.90;;;;;;6133679;23;20401;-78
2021/04/07 03:30:48;;;;;;;5.28;0.15;;;1.80;99.90;;;;;;6157299;23;20065;-78
2021/04/07 03:33:13;;;;;;;2.47;0.15;;;1.80;99.90;;;;;;6160915;23;19997;-78
2021/04/07 03:35:40;;;;;;;5.15;0.10;;;;;;;;;;6158572;23;20004;-78
2021/04/07 03:38:08;;;;;;;6.78;0.40;;;;;;;;;;6132533;23;20009;-78
2021/04/07 03:40:34;;;;;;;5.90;0.25;;;;;;;;;;6132666;23;20445;-78
2021/04/07 03:42:59;;;;;;;6.18;0.20;;;1.80;99.90;;;;;;6130982;23;20100;-77
2021/04/07 03:45:25;;;;;;;5.43;0.57;;;1.60;99.90;;;;;;6131705;23;20001;-78
2021/04/07 03:47:51;;;;;;;6.88;0.47;;;4.20;99.90;;;;;;6131761;23;20001;-78
2021/04/07 03:50:16;;;;;;;6.63;0.00;;;2.10;99.90;;;;;;6130663;23;20281;-77
2021/04/07 03:52:42;;;;;;;6.22;0.05;;;2.00;99.90;;;;;;6158962;23;20016;-77
2021/04/07 03:55:13;;;;;;;2.28;0.00;;;4.50;99.90;;;;;;6158161;23;20013;-78
2021/04/07 03:57:38;;;;;;;4.78;0.10;;;;;;;;;;6132553;23;20454;-78
2021/04/07 04:00:05;;;;;;;3.22;0.00;;;1.50;99.90;;;;;;6158454;23;20009;-78
2021/04/07 04:02:30;;;;;;;0.52;0.00;;;1.40;99.90;;;;;;6132187;23;20428;-78
2021/04/07 04:04:56;;;;;;;0.50;0.00;;;1.30;99.90;;;;;;6159961;23;20004;-77
2021/04/07 04:07:21;;;;;;;7.13;0.00;;;1.40;99.90;;;;;;6157476;23;20120;-78
2021/04/07 04:09:47;;;;;;;2.67;0.30;;;1.30;99.90;;;;;;6132180;23;20009;-78
2021/04/07 04:12:12;;;;;;;5.22;0.25;;;1.40;99.90;;;;;;6132458;23;20016;-78
2021/04/07 04:14:38;;;;;;;2.92;0.10;;;1.30;99.90;;;;;;6157750;23;20005;-77
2021/04/07 04:17:03;;;;;;;5.88;0.32;;;1.60;99.90;;;;;;6132153;23;20096;-78
2021/04/07 04:19:30;;;;;;;5.72;0.15;;;1.30;99.90;;;;;;6156232;23;20072;-77
2021/04/07 04:22:08;;;;;;;1.85;0.00;;;2.40;99.90;;;;;;6157661;23;20005;-77
2021/04/07 04:24:34;;;;;;;;;;;1.50;99.90;;;;;;6157921;23;20037;-77
2021/04/07 04:27:00;;;;;;;2.80;0.45;;;-0.40;99.90;;;;;;6159884;23;19905;-78
2021/04/07 04:29:25;;;;;;;2.22;0.00;;;1.30;99.90;;;;;;6157938;23;20349;-78
2021/04/07 04:31:51;;;;;;;5.63;0.00;;;1.20;99.90;;;;;;6133293;23;20001;-78
2021/04/07 04:34:16;;;;;;;2.42;0.00;;;1.10;99.90;;;;;;6132322;23;20090;-79
2021/04/07 04:36:42;;;;;;;1.63;0.00;;;1.20;99.90;;;;;;6160800;23;20057;-78
2021/04/07 04:39:07;;;;;;;0.10;0.00;;;1.10;99.90;;;;;;6132810;23;20002;-78
2021/04/07 04:41:33;;;;;;;2.30;0.00;;;1.10;99.90;;;;;;6157255;23;20013;-77
2021/04/07 04:43:58;;;;;;;2.20;0.00;;;1.00;99.90;;;;;;6131596;23;20008;-78
2021/04/07 04:46:24;;;;;;;0.47;0.00;;;0.90;99.90;;;;;;6131969;23;20032;-78
2021/04/07 04:48:49;;;;;;;1.90;0.00;;;1.00;99.90;;;;;;6157479;23;20002;-77
2021/04/07 04:51:15;;;;;;;0.73;0.00;;;1.00;99.90;;;;;;6132304;23;20009;-79
2021/04/07 04:53:40;;;;;;;1.30;0.00;;;0.90;99.90;;;;;;6131802;23;20433;-77
2021/04/07 04:56:06;;;;;;;0.65;0.20;;;0.90;99.90;;;;;;6157774;23;20155;-79
2021/04/07 04:58:32;;;;;;;2.80;0.00;;;0.90;99.90;;;;;;6157152;23;20421;-75
2021/04/07 05:00:58;;;;;;;1.13;0.00;;;0.90;99.90;;;;;;6130956;23;20010;-75
2021/04/07 05:03:23;;;;;;;3.80;0.17;;;1.00;99.90;;;;;;6130733;23;20337;-75
2021/04/07 05:05:49;;;;;;;2.38;0.55;;;1.00;99.90;;;;;;6130617;23;19998;-75
2021/04/07 05:08:24;;;;;;;3.38;0.10;;;1.00;99.90;;;;;;6158704;23;20074;-76
2021/04/07 05:10:50;;;;;;;5.40;0.40;;;1.10;99.90;;;;;;6132072;23;20010;-75
2021/04/07 05:13:15;;;;;;;1.27;0.00;;;1.20;99.90;;;;;;6158043;23;20007;-75
2021/04/07 05:15:41;;;;;;;3.60;0.10;;;1.20;99.90;;;;;;6131553;23;20096;-76
2021/04/07 05:18:14;;;;;;;9.65;0.30;;;1.20;99.90;;;;;;6131087;23;20052;-76
2021/04/07 05:20:40;;;;;;;8.30;0.98;;;1.30;99.90;;;;;;6132232;23;20318;-76
2021/04/07 05:23:06;;;;;;;3.45;0.25;;;1.30;99.90;;;;;;6158639;23;20004;-76
2021/04/07 05:25:32;;;;;;;4.15;0.00;;;1.40;99.90;;;;;;6132157;23;20349;-73
2021/04/07 05:28:00;;;;;;;5.32;0.40;;;1.40;99.90;;;;;;6159291;23;20002;-73
2021/04/07 05:30:26;;;;;;;4.30;0.30;;;1.40;99.90;;;;;;6159972;23;20080;-75
2021/04/07 05:32:51;;;;;;;6.35;0.32;;;1.40;99.90;;;;;;6158912;23;20243;-75
2021/04/07 05:35:17;;;;;;;7.95;0.10;;;1.50;99.90;;;;;;6160460;23;20006;-74
2021/04/07 05:37:43;;;;;;;5.93;0.20;;;1.60;99.90;;;;;;6159454;23;20040;-74
2021/04/07 05:40:09;;;;;;;4.57;0.73;;;1.70;99.90;;;;;;6161080;23;20337;-74
2021/04/07 05:42:34;;;;;;;13.88;0.10;;;1.70;99.90;;;;;;6160145;23;20021;-77
2021/04/07 05:45:00;;;;;;;9.30;0.00;;;1.50;99.90;;;;;;6160691;23;20432;-73
2021/04/07 05:47:25;;;;;;;5.18;0.10;;;1.60;99.90;;;;;;6161699;23;20008;-73
2021/04/07 05:49:51;;;;;;;7.57;0.20;;;5.10;99.90;;;;;;6133220;23;20006;-73
2021/04/07 05:52:16;;;;;;;2.83;0.30;;;2.20;99.90;;;;;;6159923;23;20348;-73
2021/04/07 05:54:42;;;;;;;8.60;0.20;;;2.40;99.90;;;;;;6161733;23;20013;-76
2021/04/07 05:57:07;;;;;;;2.83;0.10;;;2.60;99.90;;;;;;6158211;23;20105;-74
2021/04/07 05:59:34;;;;;;;4.90;0.93;;;;;;;;;;6133354;23;20002;-74
2021/04/07 06:02:00;;;;;;;1.90;0.00;;;2.70;99.90;;;;;;6159614;23;20454;-79
2021/04/07 06:04:25;;;;;;;4.72;0.43;;;2.80;99.90;;;;;;6161745;23;20024;-75
2021/04/07 06:06:51;;;;;;;0.17;0.00;;;2.80;99.90;;;;;;6159609;23;20008;-77
2021/04/07 06:09:17;;;;;;;13.30;0.20;;;3.00;99.90;;;;;;6159031;23;19998;-78
2021/04/07 06:11:43;;;;;;;6.88;0.45;;;2.90;99.90;;;;;;6133970;23;20400;-78
2021/04/07 06:14:08;;;;;;;5.20;0.63;;;1.90;99.90;;;;;;6134680;23;20447;-77
2021/04/07 06:16:34;;;;;;;14.23;0.98;;;3.00;99.90;;;;;;6137103;23;20021;-78
2021/04/07 06:19:00;;;;;;;13.70;0.28;;;1.90;99.90;;;;;;6137213;23;20088;-72
2021/04/07 06:21:26;;;;;;;4.68;0.00;;;3.30;99.90;;;;;;6162304;23;20013;-79
2021/04/07 06:23:59;;;;;;;9.20;0.00;;;5.50;99.90;;;;;;6156571;23;20076;-77
2021/04/07 06:26:25;;;;;;;12.30;0.80;;;3.60;99.90;;;;;;6160151;23;20052;-78
2021/04/07 06:28:50;;;;;;;14.10;0.90;;;3.30;99.90;;;;;;6157965;23;20369;-76
2021/04/07 06:31:16;;;;;;;8.45;0.25;;;3.20;99.90;;;;;;6160250;23;20005;-74
2021/04/07 06:33:42;;;;;;;14.23;0.10;;;3.80;99.90;;;;;;6159481;23;20001;-77
2021/04/07 06:36:08;;;;;;;16.75;1.27;;;3.90;99.90;;;;;;6134476;23;20010;-78
2021/04/07 06:38:36;;;;;;;10.52;0.65;;;4.00;99.90;;;;;;6159283;23;20006;-78
2021/04/07 06:41:03;;;;;;;13.37;0.87;;;4.00;99.90;;;;;;6158830;23;20080;-78
2021/04/07 06:43:31;;;;;;;5.00;0.43;;;4.10;99.90;;;;;;6133934;23;20010;-77
2021/04/07 06:46:01;;;;;;;10.40;0.65;;;4.10;99.90;;;;;;6133752;23;20025;-77
2021/04/07 06:48:28;;;;;;;6.30;0.03;;;4.20;99.90;;;;;;6160817;23;20001;-77
2021/04/07 06:50:57;;;;;;;11.00;0.43;;;4.40;99.90;;;;;;6132269;23;20010;-77
2021/04/07 06:53:29;;;;;;;6.03;0.20;;;4.50;99.90;;;;;;6133472;23;20061;-79
2021/04/07 06:55:55;;;;;;;7.40;0.40;;;4.70;99.90;;;;;;6134298;23;20008;-79
2021/04/07 06:58:24;;;;;;;8.48;0.40;;;4.80;99.90;;;;;;6160564;23;20006;-78
2021/04/07 07:00:49;;;;;;;9.88;1.38;;;4.90;99.90;;;;;;6159668;23;20004;-79
2021/04/07 07:03:17;;;;;;;8.45;0.20;;;4.90;99.90;;;;;;6133488;23;20081;-78
2021/04/07 07:08:16;;;;;;;6.00;0.10;;;5.10;99.90;;;;;;6133185;23;20045;-80
2021/04/07 07:10:47;;;;;;;11.75;0.25;;;5.30;99.90;;;;;;6103868;23;20080;-78
2021/04/07 07:13:23;;;;;;;8.85;0.30;;;6.80;99.90;;;;;;6129302;23;20377;-77
2021/04/07 07:18:27;;;;;;;10.07;0.75;;;4.90;99.90;;;;;;6158106;23;20024;-79
2021/04/07 07:20:54;;;;;;;13.88;1.00;;;8.40;99.90;;;;;;6133758;23;20173;-78
2021/04/07 07:23:28;;;;;;;12.73;0.85;;;4.10;99.90;;;;;;6159230;23;20072;-79
2021/04/07 07:25:57;;;;;;;19.10;0.95;;;5.10;99.90;;;;;;6152620;23;19998;-80
2021/04/07 07:28:23;;;;;;;15.15;0.40;;;4.50;99.90;;;;;;6104313;23;20013;-78
2021/04/07 07:30:49;;;;;;;14.38;0.57;;;6.20;99.90;;;;;;6104412;23;20461;-79
2021/04/07 07:33:21;;;;;;;15.65;0.50;;;4.80;99.90;;;;;;6105867;23;20434;-79
2021/04/07 07:35:49;;;;;;;21.63;1.30;;;5.30;99.90;;;;;;6129115;23;20325;-79
2021/04/07 07:38:24;;;;;;;16.08;1.13;;;5.40;99.90;;;;;;6104537;23;20061;-78
2021/04/07 07:40:59;;;;;;;24.77;1.88;;;5.50;99.90;;;;;;6105364;23;20002;-78
2021/04/07 07:43:25;;;;;;;30.17;1.83;;;5.50;99.90;;;;;;6105839;23;20085;-80
2021/04/07 07:45:51;;;;;;;24.80;1.50;;;5.50;99.90;;;;;;6104843;23;20009;-77
2021/04/07 07:48:21;;;;;;;20.33;1.65;;;5.40;99.90;;;;;;6103557;23;20077;-78
2021/04/07 07:50:48;;;;;;;19.02;1.55;;;5.60;99.90;;;;;;6143535;23;20108;-79
2021/04/07 07:53:19;;;;;;;21.52;2.38;;;5.60;99.90;;;;;;6133736;23;20337;-77
2021/04/07 07:56:06;;;;;;;20.05;2.00;;;5.80;99.90;;;;;;6136256;23;19998;-79
2021/04/07 07:58:32;;;;;;;18.08;1.35;;;5.80;99.90;;;;;;6134297;23;20006;-79
2021/04/07 08:01:05;;;;;;;13.18;0.88;;;5.70;99.90;;;;;;6161198;23;20492;-79
2021/04/07 08:03:31;;;;;;;21.17;1.42;;;5.70;99.90;;;;;;6159300;23;20002;-79
2021/04/07 08:06:00;;;;;;;19.63;0.70;;;5.60;99.90;;;;;;6160430;23;19998;-78
2021/04/07 08:08:26;;;;;;;20.33;1.65;;;5.40;99.90;;;;;;6136147;23;20006;-78
2021/04/07 08:10:57;;;;;;;18.77;0.90;;;5.50;99.90;;;;;;6131486;23;20398;-78
2021/04/07 08:13:39;;;;;;;15.68;1.83;;;5.40;99.90;;;;;;6137452;23;20032;-79
2021/04/07 08:16:24;;;;;;;13.05;1.00;;;5.60;99.90;;;;;;6162685;23;20013;-79
2021/04/07 08:18:50;;;;;;;11.93;0.85;;;5.50;99.90;;;;;;6136036;23;20013;-79
2021/04/07 08:21:17;;;;;;;19.08;1.77;;;5.70;99.90;;;;;;6133626;23;20017;-79
2021/04/07 08:23:46;;;;;;;19.23;1.67;;;5.90;99.90;;;;;;6163231;23;20069;-78
2021/04/07 08:26:15;;;;;;;23.35;2.63;;;6.10;99.90;;;;;;6132800;23;20068;-78
2021/04/07 08:28:42;;;;;;;11.05;1.00;;;6.30;99.90;;;;;;6161815;23;20053;-80
2021/04/07 08:31:16;;;;;;;17.30;1.45;;;7.80;99.90;;;;;;6162077;23;20009;-80
2021/04/07 08:33:47;;;;;;;17.08;1.27;;;5.60;99.90;;;;;;6160852;23;20198;-79
2021/04/07 08:36:18;;;;;;;15.23;1.20;;;9.50;99.90;;;;;;6159851;23;20025;-75
2021/04/07 08:38:44;;;;;;;20.65;2.47;;;6.50;99.90;;;;;;6155897;23;20021;-75
2021/04/07 08:41:18;;;;;;;18.02;1.17;;;6.00;99.90;;;;;;6133263;23;20024;-76
2021/04/07 08:43:44;;;;;;;18.25;1.90;;;6.70;99.90;;;;;;6158034;23;19997;-76
2021/04/07 08:46:15;;;;;;;16.25;0.52;;;6.70;99.90;;;;;;6131123;23;20404;-75
2021/04/07 08:48:41;;;;;;;17.70;2.28;;;6.80;99.90;;;;;;6157887;23;20004;-75
2021/04/07 08:51:15;;;;;;;15.18;1.08;;;6.80;99.90;;;;;;6157558;23;20002;-76
2021/04/07 08:53:43;;;;;;;20.58;2.58;;;6.80;99.90;;;;;;6158531;23;20002;-76
2021/04/07 08:56:14;;;;;;;10.87;0.30;;;6.80;99.90;;;;;;6133116;23;20012;-75
2021/04/07 08:58:57;;;;;;;14.07;1.55;;;6.60;99.90;;;;;;6132301;23;20088;-76
2021/04/07 09:01:32;;;;;;;8.70;0.25;;;6.60;99.90;;;;;;6158596;23;20001;-75
2021/04/07 09:04:13;;;;;;;9.85;0.30;;;6.60;99.90;;;;;;6157484;23;20180;-77
2021/04/07 09:06:55;;;;;;;13.82;0.80;;;6.60;99.90;;;;;;6156731;23;20119;-75
2021/04/07 09:09:22;;;;;;;15.48;1.13;;;6.60;99.90;;;;;;6132484;23;20434;-77
2021/04/07 09:11:50;;;;;;;19.23;2.80;;;6.50;99.90;;;;;;6130060;23;20001;-76
2021/04/07 09:14:16;;;;;;;23.33;1.20;;;6.30;99.90;;;;;;6130472;23;20306;-76
2021/04/07 09:16:42;;;;;;;13.95;1.23;;;6.30;99.90;;;;;;6130944;23;20012;-77
2021/04/07 09:19:27;;;;;;;22.77;1.85;;;6.30;99.90;;;;;;6156256;23;20002;-77
2021/04/07 09:22:00;;;;;;;25.95;2.92;;;6.50;99.90;;;;;;6156524;23;20012;-76
2021/04/07 09:24:28;;;;;;;14.73;0.82;;;6.80;99.90;;;;;;6156975;23;20032;-76
2021/04/07 09:26:56;;;;;;;16.60;1.42;;;7.00;99.90;;;;;;6131339;23;20005;-76
2021/04/07 09:29:22;;;;;;;14.60;1.27;;;7.20;99.90;;;;;;6130220;23;20025;-77
2021/04/07 09:31:50;;;;;;;15.93;1.10;;;7.20;99.90;;;;;;6130875;23;20002;-77
2021/04/07 09:34:17;;;;;;;25.55;2.15;;;7.10;99.90;;;;;;6131972;23;20071;-77
2021/04/07 09:36:45;;;;;;;11.82;0.63;;;7.00;99.90;;;;;;6131837;23;20345;-77
2021/04/07 09:39:13;;;;;;;11.48;0.43;;;6.90;99.90;;;;;;6132096;23;20013;-75
2021/04/07 09:41:42;;;;;;;13.50;0.85;;;6.90;99.90;;;;;;6132173;23;20001;-76
2021/04/07 09:44:09;;;;;;;;;;;6.90;99.90;;;;;;6159403;23;20001;-74
2021/04/07 09:46:35;;;;;;;15.32;1.15;;;7.00;99.90;;;;;;6125007;23;19920;-76
2021/04/07 09:49:06;;;;;;;12.40;0.90;;;6.90;99.90;;;;;;6101687;23;20002;-77
2021/04/07 09:51:42;;;;;;;15.63;0.32;;;7.20;99.90;;;;;;6127771;23;20029;-76
2021/04/07 09:54:26;;;;;;;12.70;1.27;;;7.30;99.90;;;;;;6128677;23;20006;-76
2021/04/07 09:56:59;;;;;;;13.75;1.70;;;7.60;99.90;;;;;;6101821;23;20006;-76
2021/04/07 09:59:39;;;;;;;16.73;1.42;;;7.80;99.90;;;;;;6102268;23;20042;-77
2021/04/07 10:02:13;;;;;;;14.85;1.20;;;7.80;99.90;;;;;;6102741;23;20020;-76
2021/04/07 10:04:41;;;;;;;15.32;1.52;;;7.70;99.90;;;;;;6131821;23;21297;-74
2021/04/07 10:07:08;;;;;;;14.27;0.75;;;7.60;99.90;;;;;;6134111;23;20010;-75
2021/04/07 10:09:33;;;;;;;14.90;0.73;;;8.00;99.90;;;;;;6159887;23;19997;-75
2021/04/07 10:11:59;;;;;;;18.15;1.77;;;8.00;99.80;;;;;;6159253;23;20028;-76
2021/04/07 10:14:25;;;;;;;7.75;0.52;;;7.90;99.90;;;;;;6132634;23;20028;-74
2021/04/07 10:16:51;;;;;;;14.35;1.70;;;7.80;99.90;;;;;;6158871;23;20001;-74
2021/04/07 10:19:16;;;;;;;10.40;1.05;;;7.60;98.60;;;;;;6160018;23;20004;-76
2021/04/07 10:21:45;;;;;;;13.43;1.33;;;7.50;99.90;;;;;;6133439;23;20021;-77
2021/04/07 10:24:15;;;;;;;19.52;0.70;;;7.40;99.90;;;;;;6134647;23;20049;-76
2021/04/07 10:26:43;;;;;;;14.55;1.08;;;7.40;99.90;;;;;;6132607;23;20005;-77
2021/04/07 10:29:09;;;;;;;10.18;0.95;;;7.40;99.90;;;;;;6134236;23;20009;-77
2021/04/07 10:31:35;;;;;;;7.32;0.50;;;7.30;99.90;;;;;;6159197;23;20017;-77
2021/04/07 10:34:09;;;;;;;11.05;1.38;;;7.20;99.90;;;;;;6159525;23;20013;-77
2021/04/07 10:36:39;;;;;;;7.50;1.08;;;7.00;99.90;;;;;;6159399;23;20005;-76
2021/04/07 10:39:17;;;;;;;6.88;0.52;;;6.90;99.90;;;;;;6133149;23;20493;-75
2021/04/07 10:41:53;;;;;;;11.70;0.63;;;6.90;99.90;;;;;;6127253;23;20327;-76
2021/04/07 10:44:27;;;;;;;4.07;0.38;;;6.70;99.90;;;;;;6159224;23;20241;-74
2021/04/07 10:46:53;;;;;;;6.85;0.75;;;6.70;99.90;;;;;;6140293;23;20370;-74
2021/04/07 10:49:19;;;;;;;7.03;0.20;;;6.80;99.90;;;;;;6129162;23;20476;-74
2021/04/07 10:51:46;;;;;;;7.68;0.68;;;6.80;99.90;;;;;;6128401;23;20481;-75
2021/04/07 10:54:11;;;;;;;5.32;0.55;;;7.10;99.90;;;;;;6127989;23;20073;-76
2021/04/07 10:56:38;;;;;;;13.38;0.57;;;7.40;99.90;;;;;;6130025;23;20016;-78
2021/04/07 10:59:12;;;;;;;11.13;0.55;;;7.70;98.60;;;;;;6129363;23;20013;-78
2021/04/07 11:01:38;;;;;;;8.38;0.00;;;8.00;97.90;;;;;;6128764;23;20005;-78
2021/04/07 11:04:10;;;;;;;8.40;0.55;;;8.10;96.00;;;;;;6128657;23;19998;-77
2021/04/07 11:06:36;;;;;;;10.20;1.23;;;8.00;94.20;;;;;;6102737;23;20002;-78
2021/04/07 11:09:02;;;;;;;7.70;0.93;;;7.80;93.70;;;;;;6102775;23;20013;-77
2021/04/07 11:11:28;;;;;;;7.82;0.57;;;7.50;97.00;;;;;;6128614;23;20324;-77
2021/04/07 11:13:53;;;;;;;15.25;0.30;;;7.20;98.00;;;;;;6129211;23;20082;-76
2021/04/07 11:16:19;;;;;;;8.48;0.77;;;7.20;98.60;;;;;;6127824;23;20454;-75
2021/04/07 11:18:46;;;;;;;9.63;1.27;;;7.20;99.90;;;;;;6126692;23;20002;-75
2021/04/07 11:21:14;;;;;;;9.82;0.38;;;7.30;99.80;;;;;;6101539;23;20010;-75
2021/04/07 11:23:39;;;;;;;8.77;0.10;;;7.40;96.70;;;;;;6128489;23;20520;-77
2021/04/07 11:26:09;;;;;;;11.02;0.80;;;7.60;93.10;;;;;;6128995;23;20018;-77
2021/04/07 11:28:35;;;;;;;8.60;0.20;;;7.60;91.20;;;;;;6128842;23;20064;-77
2021/04/07 11:33:45;;;;;;;3.63;0.00;;;7.80;89.50;;;;;;6129454;23;20037;-77
2021/04/07 11:46:38;;;;;;;7.40;0.93;;;7.80;86.80;;;;;;6128506;23;20010;-78
2021/04/07 11:51:41;;;;;;;5.78;0.45;;;8.10;86.00;;;;;;6128629;23;20084;-75
2021/04/07 11:54:10;;;;;;;5.60;0.32;;;8.20;81.70;;;;;;6102355;23;20066;-75
2021/04/07 11:56:42;;;;;;;10.10;0.90;;;8.40;85.30;;;;;;6127253;23;19998;-76
2021/04/07 11:59:08;;;;;;;7.40;0.20;;;8.50;84.50;;;;;;6127713;23;19998;-75
2021/04/07 12:01:33;;;;;;;4.75;0.20;;;8.50;81.30;;;;;;6102428;23;20017;-74
2021/04/07 12:04:00;;;;;;;6.45;0.10;;;8.40;82.60;;;;;;6128351;23;20002;-75
2021/04/07 12:06:25;;;;;;;3.92;0.00;;;8.50;82.50;;;;;;6101637;23;20081;-75
2021/04/07 12:08:51;;;;;;;6.35;0.30;;;8.70;84.10;;;;;;6127444;23;20025;-76
2021/04/07 12:11:17;;;;;;;13.93;0.88;;;8.90;81.50;;;;;;6126923;23;20001;-76
2021/04/07 12:13:42;;;;;;;7.35;0.30;;;9.00;78.10;;;;;;6127475;23;20494;-76
2021/04/07 12:16:08;;;;;;;6.05;0.10;;;8.80;78.70;;;;;;6127889;23;20330;-75
2021/04/07 12:18:34;;;;;;;7.38;0.15;;;8.50;80.00;;;;;;6102543;23;20010;-75
2021/04/07 12:20:59;;;;;;;9.35;0.43;;;8.80;82.00;;;;;;6127348;23;20010;-77
2021/04/07 12:23:25;;;;;;;12.25;0.98;;;8.30;80.30;;;;;;6101305;23;20050;-77
2021/04/07 12:25:50;;;;;;;5.78;0.30;;;8.30;82.20;;;;;;6102275;23;19998;-76
2021/04/07 12:28:16;;;;;;;8.02;0.50;;;8.30;79.70;;;;;;6102592;23;19998;-75
2021/04/07 12:30:48;;;;;;;6.32;0.30;;;8.30;75.40;;;;;;6102038;23;20006;-76
2021/04/07 12:33:23;;;;;;;4.45;0.40;;;8.30;73.20;;;;;;6103152;23;20315;-76
2021/04/07 12:35:49;;;;;;;3.80;0.20;;;8.30;76.00;;;;;;6102499;23;20034;-75
2021/04/07 12:38:16;;;;;;;4.10;0.50;;;8.20;74.70;;;;;;6103603;23;20002;-75
2021/04/07 12:40:45;;;;;;;5.88;0.20;;;8.00;72.60;;;;;;6147068;23;20017;-74
2021/04/07 12:43:11;;;;;;;11.25;0.32;;;10.40;76.60;;;;;;6159214;23;20056;-74
2021/04/07 12:45:39;;;;;;;13.07;0.65;;;7.60;73.90;;;;;;6127082;23;20453;-75
2021/04/07 12:48:06;;;;;;;8.60;0.63;;;7.40;77.10;;;;;;6129034;23;20033;-76
2021/04/07 12:50:32;;;;;;;10.15;0.70;;;7.40;83.20;;;;;;6152155;23;20080;-77
2021/04/07 12:52:57;;;;;;;5.28;0.32;;;6.30;88.00;;;;;;6158411;23;20425;-75
2021/04/07 12:55:23;;;;;;;9.18;0.47;;;7.20;93.00;;;;;;6125680;23;20021;-76
2021/04/07 12:57:48;;;;;;;9.90;0.25;;;9.80;94.30;;;;;;6129405;23;20002;-76
2021/04/07 13:00:15;;;;;;;10.63;0.47;;;9.90;93.90;;;;;;6101976;23;20009;-74
2021/04/07 13:02:40;;;;;;;15.45;1.27;;;7.10;98.10;;;;;;6128637;23;20008;-74
2021/04/07 13:05:07;;;;;;;19.10;2.10;;;7.30;97.00;;;;;;6129126;23;20025;-75
2021/04/07 13:07:33;;;;;;;12.10;0.47;;;7.40;98.80;;;;;;6128887;23;20002;-74
2021/04/07 13:09:59;;;;;;;4.82;0.45;;;7.60;96.10;;;;;;6129216;23;20053;-75
2021/04/07 13:12:25;;;;;;;11.18;0.20;;;7.60;94.40;;;;;;6128137;23;20007;-75
2021/04/07 13:14:51;;;;;;;13.05;0.60;;;7.80;95.00;;;;;;6128365;23;20085;-75
2021/04/07 13:17:16;;;;;;;5.78;0.50;;;7.80;92.70;;;;;;6102114;23;20013;-75
2021/04/07 13:19:47;;;;;;;6.07;0.32;;;7.90;90.80;;;;;;6128138;23;20322;-75
2021/04/07 13:22:13;;;;;;;8.95;0.10;;;8.20;87.30;;;;;;6100815;23;19998;-75
2021/04/07 13:24:39;;;;;;;5.72;0.55;;;8.90;90.00;;;;;;6126513;23;20025;-76
2021/04/07 13:27:08;;;;;;;10.48;0.82;;;9.70;89.00;;;;;;6124798;23;20006;-75
2021/04/07 13:29:33;;;;;;;10.15;0.55;;;10.00;75.20;;;;;;6125493;23;19998;-74
2021/04/07 13:32:00;;;;;;;5.68;0.05;;;10.00;71.80;;;;;;6126313;23;20017;-75
2021/04/07 13:34:33;;;;;;;7.93;0.73;;;10.10;76.20;;;;;;6125544;23;20020;-75
2021/04/07 13:37:15;;;;;;;5.95;0.65;;;9.70;67.30;;;;;;6128281;23;20009;-77
2021/04/07 13:39:50;;;;;;;8.48;1.25;;;9.40;70.30;;;;;;6126699;23;20006;-75
2021/04/07 13:44:43;;;;;;;6.03;0.30;;;8.90;72.60;;;;;;6129341;23;20033;-75